Latest Weather Observations for Lake Grace

IDW60801

Issued at 3:02 am WST Tuesday 23 December 2014 (issued every 30 minutes, with the page automatically refreshed every 10 minutes)

About weather observations | Map of weather stations | Latest weather observations for WA | Other Formats
Station Details ID: 010911 Name: LAKE GRACE Lat: -33.10 Lon: 118.46 Height: 286.0 m
Data from the previous 72 hours. | See also: Recent months at Lake Grace
Date/Time
WST
Temp
°C
App
Temp
°C
Dew
Point
Rel
Hum
%
Delta-T
°C
Wind Press
QNH
hPa
Press
MSL
hPa
Rain
since 9 am
mm
Dir
 
Spd
km/h
Gust
km/h
Spd
kts
Gust
kts
23/03:00am 12.0 10.1 9.2 83 1.4 SE 9 15 5 8 1020.2 1019.1 0.0
23/02:30am 12.3 10.0 9.1 81 1.6 SE 11 15 6 8 1020.0 1018.9 0.0
23/02:00am 12.5 10.2 9.1 80 1.7 SE 11 15 6 8 1020.0 1018.9 0.0
23/01:30am 12.7 10.1 9.2 79 1.8 SE 13 20 7 11 1019.8 1018.7 0.0
23/01:00am 13.0 10.3 9.1 77 2.0 SE 13 22 7 12 1019.9 1018.8 0.0
23/12:30am 13.2 10.5 9.1 76 2.1 SE 13 17 7 9 1020.1 1019.0 0.0
23/12:00am 13.5 10.1 9.0 74 2.3 SE 17 26 9 14 1020.0 1018.9 0.0
 
Date/Time
WST
Temp
°C
App
Temp
°C
Dew
Point
Rel
Hum
%
Delta-T
°C
Wind Press
QNH
hPa
Press
MSL
hPa
Rain
since 9 am
mm
Dir
 
Spd
km/h
Gust
km/h
Spd
kts
Gust
kts
22/11:30pm 13.8 9.9 8.8 72 2.6 SE 19 28 10 15 1020.0 1018.9 0.0
22/11:00pm 14.2 10.1 8.8 70 2.8 SE 20 33 11 18 1020.1 1019.0 0.0
22/10:30pm 14.5 10.4 8.7 68 3.0 SE 20 28 11 15 1020.2 1019.1 0.0
22/10:00pm 15.0 10.3 9.1 68 3.1 SE 24 35 13 19 1020.1 1019.0 0.0
22/09:30pm 15.5 10.8 9.4 67 3.2 SE 24 39 13 21 1019.7 1018.6 0.0
22/09:00pm 16.1 10.7 9.5 65 3.5 SE 28 41 15 22 1019.3 1018.2 0.0
22/08:44pm 16.6 11.2 9.5 63 3.8 SE 28 46 15 25 1019.1 1018.0 0.0
22/08:30pm 17.0 11.3 9.7 62 3.9 SE 30 46 16 25 1018.8 1017.7 0.0
22/08:00pm 18.0 12.3 9.9 59 4.3 SE 30 41 16 22 1018.3 1017.2 0.0
22/07:30pm 19.3 14.0 10.0 55 5.0 SE 28 43 15 23 1017.7 1016.6 0.0
22/07:00pm 21.1 15.2 10.3 50 5.9 SE 32 48 17 26 1016.9 1015.7 0.0
22/06:30pm 22.6 16.8 10.7 47 6.6 SE 32 46 17 25 1016.3 1015.2 0.0
22/06:14pm 24.0 19.5 9.9 41 7.8 SE 24 48 13 26 1015.7 1014.6 0.0
22/06:00pm 26.0 22.2 5.6 27 10.6 S 15 24 8 13 1015.6 1014.5 0.0
22/05:30pm 26.2 22.5 4.6 25 11.1 SSE 13 22 7 12 1015.5 1014.4 0.0
22/05:00pm 26.4 23.1 4.8 25 11.1 SSE 11 19 6 10 1015.5 1014.4 0.0
22/04:30pm 26.4 23.9 6.4 28 10.6 SW 9 15 5 8 1015.6 1014.5 0.0
22/04:00pm 25.9 22.9 6.0 28 10.4 SSE 11 19 6 10 1015.6 1014.5 0.0
22/03:30pm 25.0 22.1 4.7 27 10.3 ESE 9 17 5 9 1015.8 1014.7 0.0
22/03:00pm 24.7 21.7 6.0 30 9.7 WSW 11 22 6 12 1016.2 1015.1 0.0
22/02:30pm 25.5 22.6 8.1 33 9.4 SSW 13 20 7 11 1016.4 1015.3 0.0
22/02:00pm 24.3 20.5 7.4 34 9.0 SW 17 28 9 15 1016.6 1015.5 0.0
22/01:30pm 23.8 21.6 9.4 40 7.9 SW 11 20 6 11 1016.9 1015.7 0.0
22/01:00pm 23.7 21.2 9.7 41 7.7 SW 13 19 7 10 1017.2 1016.0 0.0
22/12:30pm 24.0 22.0 10.3 42 7.6 SSW 11 22 6 12 1017.6 1016.5 0.0
22/12:00pm 23.0 20.9 9.8 43 7.3 SW 11 15 6 8 1017.9 1016.8 0.0
22/11:30am 22.9 21.2 10.0 44 7.1 WNW 9 17 5 9 1018.4 1017.3 0.0
22/11:00am 21.7 19.7 10.2 48 6.3 SE 11 17 6 9 1018.8 1017.7 0.0
22/10:30am 20.7 19.1 10.2 51 5.8 NNE 9 15 5 8 1019.1 1018.0 0.0
22/10:00am 19.4 18.4 10.9 58 4.7 SE 7 15 4 8 1019.2 1018.1 0.0
22/09:30am 18.4 16.9 10.7 61 4.2 ENE 9 17 5 9 1019.3 1018.2 0.0
22/09:00am 18.1 16.2 11.7 66 3.5 SE 13 17 7 9 1019.2 1018.1 0.0
22/08:30am 17.5 15.9 11.5 68 3.3 ESE 11 17 6 9 1019.2 1018.1 0.0
22/08:00am 16.8 15.0 12.1 74 2.6 SE 13 20 7 11 1019.4 1018.3 0.0
22/07:30am 16.3 14.6 12.5 78 2.1 ESE 13 19 7 10 1019.4 1018.3 0.0
22/07:00am 15.7 14.0 12.3 80 1.9 ESE 13 17 7 9 1019.3 1018.2 0.0
22/06:30am 15.2 13.4 12.1 82 1.7 ESE 13 19 7 10 1019.0 1017.9 0.0
22/06:00am 14.6 12.7 11.9 84 1.5 ESE 13 19 7 10 1018.8 1017.7 0.0
22/05:30am 14.5 12.2 11.8 84 1.5 SE 15 19 8 10 1018.5 1017.4 0.0
22/05:00am 14.4 12.5 11.9 85 1.4 SE 13 17 7 9 1018.3 1017.2 0.0
22/04:30am 14.4 12.9 11.9 85 1.4 SE 11 19 6 10 1018.0 1016.9 0.0
22/04:00am 14.3 12.7 11.6 84 1.5 SE 11 17 6 9 1017.9 1016.8 0.0
22/03:30am 14.4 12.4 11.6 83 1.5 SE 13 19 7 10 1017.9 1016.8 0.0
22/03:00am 14.6 13.0 11.4 81 1.7 SE 11 17 6 9 1017.9 1016.8 0.0
22/02:30am 14.7 12.4 11.7 82 1.6 SE 15 20 8 11 1017.8 1016.7 0.0
22/02:00am 14.7 12.7 11.5 81 1.7 ESE 13 19 7 10 1017.8 1016.7 0.0
22/01:30am 14.5 11.7 11.5 82 1.6 SE 17 24 9 13 1018.2 1017.1 0.0
22/01:00am 14.4 11.1 11.7 84 1.5 ESE 20 28 11 15 1018.4 1017.3 0.0
22/12:30am 14.4 11.7 11.7 84 1.5 SE 17 26 9 14 1018.5 1017.4 0.0
22/12:00am 14.5 11.8 11.8 84 1.5 SE 17 28 9 15 1018.7 1017.6 0.0
 
Date/Time
WST
Temp
°C
App
Temp
°C
Dew
Point
Rel
Hum
%
Delta-T
°C
Wind Press
QNH
hPa
Press
MSL
hPa
Rain
since 9 am
mm
Dir
 
Spd
km/h
Gust
km/h
Spd
kts
Gust
kts
21/11:30pm 14.7 12.1 12.0 84 1.5 SE 17 24 9 13 1019.0 1017.9 0.0
21/11:00pm 15.0 12.4 12.0 82 1.6 SE 17 24 9 13 1019.3 1018.2 0.0
21/10:30pm 15.2 12.2 12.0 81 1.8 SE 19 26 10 14 1019.5 1018.4 0.0
21/10:00pm 15.3 12.4 12.2 82 1.7 SE 19 26 10 14 1019.6 1018.5 0.0
21/09:30pm 15.6 12.7 12.4 81 1.8 SE 19 30 10 16 1019.6 1018.5 0.0
21/09:00pm 16.1 13.0 12.3 78 2.1 SE 20 32 11 17 1019.5 1018.4 0.0
21/08:30pm 16.3 13.9 12.5 78 2.1 SE 17 26 9 14 1019.2 1018.1 0.0
21/08:00pm 16.6 13.7 12.4 76 2.3 SE 19 32 10 17 1019.2 1018.1 0.0
21/07:30pm 17.1 14.1 12.6 75 2.5 SE 20 30 11 16 1018.8 1017.7 0.0
21/07:00pm 17.2 13.4 12.5 74 2.6 SE 24 33 13 18 1018.2 1017.1 0.0
21/06:30pm 17.4 14.1 12.7 74 2.7 SE 22 33 12 18 1018.1 1017.0 0.0
21/06:00pm 18.3 15.1 13.0 71 3.0 SE 22 33 12 18 1017.9 1016.8 0.0
21/05:30pm 18.2 13.8 12.9 71 3.0 SSE 28 43 15 23 1017.7 1016.6 0.0
21/05:00pm 19.2 15.1 12.7 66 3.7 SSE 26 39 14 21 1017.5 1016.4 0.0
21/04:30pm 19.8 16.1 12.8 64 4.0 SSE 24 35 13 19 1017.4 1016.3 0.0
21/04:00pm 20.4 16.8 12.9 62 4.3 SSE 24 37 13 20 1017.3 1016.2 0.0
21/03:30pm 22.0 18.5 13.4 58 5.0 SSE 24 39 13 21 1017.2 1016.0 0.0
21/03:00pm 21.6 18.4 13.0 58 5.0 SSE 22 37 12 20 1017.2 1016.0 0.0
21/02:30pm 21.1 17.5 13.0 60 4.7 SE 24 35 13 19 1017.3 1016.2 0.0
21/02:00pm 21.1 17.6 13.3 61 4.5 SE 24 39 13 21 1017.4 1016.3 0.0
21/01:30pm 20.5 17.4 13.5 64 4.1 SSE 22 32 12 17 1017.7 1016.6 0.0
21/01:00pm 20.0 16.8 13.2 65 3.9 SE 22 37 12 20 1017.9 1016.8 0.0
21/12:30pm 18.8 15.4 13.6 72 3.0 SE 24 35 13 19 1018.0 1016.9 0.0
21/12:00pm 19.1 15.6 13.5 70 3.2 SE 24 37 13 20 1018.1 1017.0 0.0
21/11:30am 19.3 15.7 13.0 67 3.6 SE 24 41 13 22 1018.1 1017.0 0.0
21/11:00am 19.4 14.7 13.1 67 3.6 SE 30 43 16 23 1018.2 1017.1 0.0
21/10:30am 18.4 13.8 12.4 68 3.4 SSE 28 39 15 21 1018.3 1017.2 0.0
21/10:00am 18.6 14.0 12.4 67 3.5 SSE 28 41 15 22 1018.3 1017.2 0.0
21/09:30am 17.5 12.5 12.2 71 3.0 SSE 30 48 16 26 1018.5 1017.4 0.0
21/09:25am 17.5 12.5 12.2 71 3.0 SSE 30 48 16 26 1018.5 1017.4 0.0
21/09:00am 17.9 13.2 12.1 69 3.2 SSE 28 43 15 23 1018.4 1017.3 0.0
21/08:30am 17.2 13.7 12.1 72 2.8 SSE 22 39 12 21 1018.4 1017.3 0.0
21/08:00am 16.5 12.6 12.1 75 2.4 SSE 24 35 13 19 1018.3 1017.2 0.0
21/07:30am 16.4 12.6 11.3 72 2.8 SSE 22 37 12 20 1018.0 1016.9 0.0
21/07:00am 16.1 12.1 11.7 75 2.4 SSE 24 39 13 21 1017.7 1016.6 0.0
21/06:30am 16.0 11.5 11.4 74 2.5 SSE 26 44 14 24 1017.2 1016.0 0.0
21/06:03am 15.9 11.1 11.7 76 2.3 SSE 28 46 15 25 1017.0 1015.8 0.0
21/06:00am 15.9 11.5 11.7 76 2.3 SSE 26 46 14 25 1016.9 1015.7 0.0
21/05:30am 15.7 11.4 12.1 79 2.0 SSE 26 44 14 24 1016.5 1015.4 0.0
21/05:22am 15.7 10.7 12.1 79 2.0 SSE 30 48 16 26 1016.3 1015.2 0.0
21/05:00am 15.7 11.0 12.1 79 2.0 SSE 28 43 15 23 1016.0 1014.9 0.0
21/04:31am 15.7 11.1 12.3 80 1.9 SSE 28 46 15 25 1015.7 1014.6 0.0
21/04:30am 15.7 11.4 12.1 79 2.0 SSE 26 46 14 25 1015.7 1014.6 0.0
21/04:28am 15.7 11.0 12.1 79 2.0 SSE 28 46 15 25 1015.7 1014.6 0.0
21/04:00am 15.8 11.5 12.0 78 2.1 SSE 26 39 14 21 1015.5 1014.4 0.0
21/03:48am 15.7 11.0 12.1 79 2.0 SSE 28 48 15 26 1015.4 1014.3 0.0
21/03:30am 15.7 11.4 12.1 79 2.0 SSE 26 43 14 23 1015.2 1014.1 0.0
21/03:00am 15.9 12.1 12.3 79 2.0 SSE 24 43 13 23 1015.2 1014.1 0.0
21/02:30am 15.7 11.4 12.1 79 2.0 SSE 26 43 14 23 1015.0 1013.9 0.0
21/02:00am 15.9 11.3 12.3 79 2.0 SSE 28 48 15 26 1015.1 1014.0 0.0
21/01:30am 16.1 12.3 12.3 78 2.1 SSE 24 33 13 18 1015.2 1014.1 0.0
21/01:00am 15.9 12.1 12.3 79 2.0 SSE 24 43 13 23 1015.3 1014.2 0.0
21/12:48am 15.8 11.2 12.2 79 2.0 SSE 28 46 15 25 1015.3 1014.2 0.0
21/12:30am 15.8 11.9 12.0 78 2.1 SSE 24 39 13 21 1015.3 1014.2 0.0
21/12:00am 15.6 10.8 11.6 77 2.2 S 28 39 15 21 1015.0 1013.9 0.0
 
Date/Time
WST
Temp
°C
App
Temp
°C
Dew
Point
Rel
Hum
%
Delta-T
°C
Wind Press
QNH
hPa
Press
MSL
hPa
Rain
since 9 am
mm
Dir
 
Spd
km/h
Gust
km/h
Spd
kts
Gust
kts
20/11:49pm 15.9 11.1 11.5 75 2.4 SSE 28 46 15 25 1014.9 1013.8 0.0
20/11:30pm 15.9 11.1 11.5 75 2.4 S 28 44 15 24 1015.0 1013.9 0.0
20/11:00pm 16.2 11.4 11.8 75 2.4 S 28 46 15 25 1015.1 1014.0 0.0
20/10:54pm 16.2 11.4 11.8 75 2.4 S 28 46 15 25 1015.2 1014.1 0.0
20/10:30pm 16.3 12.4 12.1 76 2.3 S 24 37 13 20 1015.2 1014.1 0.0
20/10:00pm 16.6 12.0 12.2 75 2.4 S 28 48 15 26 1015.1 1014.0 0.0
20/09:35pm 16.8 12.1 12.1 74 2.6 S 28 46 15 25 1014.7 1013.6 0.0
20/09:30pm 16.7 11.6 12.0 74 2.6 S 30 46 16 25 1014.6 1013.5 0.0
20/09:00pm 17.1 12.5 12.4 74 2.6 S 28 43 15 23 1014.2 1013.0 0.0
20/08:30pm 17.5 14.0 12.2 71 3.0 SSE 22 39 12 21 1013.9 1012.7 0.0
20/08:00pm 17.8 13.6 12.3 70 3.1 SSE 26 43 14 23 1013.6 1012.4 0.0
20/07:40pm 18.3 13.6 12.1 67 3.5 SSE 28 52 15 28 1013.5 1012.3 0.0
20/07:30pm 18.5 14.0 12.5 68 3.4 SSE 28 44 15 24 1013.3 1012.1 0.0
20/07:17pm 18.5 14.1 12.9 70 3.2 SSE 28 48 15 26 1013.2 1012.0 0.0
20/07:00pm 18.5 14.4 13.8 74 2.7 SSE 28 44 15 24 1012.7 1011.6 0.0
20/06:30pm 19.1 14.1 13.3 69 3.3 SSE 32 50 17 27 1012.4 1011.3 0.0
20/06:07pm 19.6 14.6 13.3 67 3.6 SSE 32 50 17 27 1011.9 1010.8 0.0
20/06:00pm 19.9 15.3 13.4 66 3.8 SSE 30 44 16 24 1011.8 1010.7 0.0
20/05:30pm 20.2 15.4 13.9 67 3.7 SSE 32 52 17 28 1011.3 1010.2 0.0
20/05:09pm 20.4 14.8 13.4 64 4.1 SSE 35 56 19 30 1010.7 1009.5 0.0
20/05:00pm 20.8 15.3 13.7 64 4.1 S 35 52 19 28 1010.5 1009.3 0.0
20/04:30pm 21.5 15.7 13.9 62 4.5 S 37 57 20 31 1009.9 1008.7 0.0
20/04:01pm 21.9 17.2 14.8 64 4.2 S 33 52 18 28 1009.6 1008.4 0.0
20/04:00pm 21.8 16.7 14.7 64 4.2 S 35 52 19 28 1009.6 1008.4 0.0
20/03:30pm 22.5 17.9 15.1 63 4.5 S 33 61 18 33 1009.1 1008.0 0.0
20/03:07pm 23.1 17.8 15.2 61 4.8 S 37 56 20 30 1008.7 1007.6 0.0
20/03:00pm 22.8 18.0 15.6 64 4.4 S 35 52 19 28 1008.7 1007.6 0.0
20/02:30pm 23.3 18.3 16.1 64 4.4 S 37 61 20 33 1008.5 1007.4 0.0
20/02:03pm 25.7 21.6 17.4 60 5.2 S 35 54 19 29 1007.5 1006.3 0.0
20/02:00pm 26.1 21.7 17.5 59 5.5 S 37 54 20 29 1007.4 1006.2 0.0
20/01:30pm 26.7 23.2 18.0 59 5.6 S 33 57 18 31 1007.2 1006.0 0.0
20/01:05pm 30.2 27.7 18.0 48 7.9 SSW 28 48 15 26 1006.2 1005.0 0.0
20/01:00pm 30.2 27.8 17.3 46 8.3 SSW 26 41 14 22 1006.2 1005.0 0.0
20/12:30pm 30.8 29.3 16.8 43 8.9 SW 20 39 11 21 1006.2 1005.0 0.0
20/12:00pm 29.0 27.8 16.2 46 8.1 SSW 17 24 9 13 1006.6 1005.4 0.0
20/11:30am 29.2 29.4 16.7 46 7.9 SSW 11 22 6 12 1006.6 1005.4 0.0
20/11:00am 29.3 29.2 16.1 44 8.3 SSW 11 20 6 11 1006.7 1005.5 0.0
20/10:30am 25.9 24.6 16.7 57 5.8 SSW 19 26 10 14 1007.5 1006.3 0.0
20/10:00am 24.4 22.8 16.1 60 5.1 SSW 19 32 10 17 1008.0 1006.8 0.0
20/09:30am 28.1 27.1 15.7 46 7.7 NNW 15 20 8 11 1007.9 1006.7 0.0
20/09:00am 29.0 28.9 15.9 45 8.2 N 11 20 6 11 1007.6 1006.4 0.0
20/08:30am 27.9 27.5 15.2 46 7.8 NE 11 19 6 10 1008.4 1007.3 0.0
20/08:00am 26.3 25.4 13.8 46 7.5 ENE 11 19 6 10 1008.9 1007.8 0.0
20/07:30am 23.6 23.2 12.9 51 6.2 E 7 11 4 6 1009.2 1008.1 0.0
20/07:00am 22.8 22.4 12.4 52 6.0 ENE 6 9 3 5 1009.4 1008.3 0.0
20/06:30am 22.9 22.8 12.2 51 6.1 SE 4 11 2 6 1009.6 1008.4 0.0
20/06:00am 20.6 20.0 11.8 57 5.0 ESE 6 13 3 7 1009.7 1008.5 0.0
20/05:30am 19.2 18.3 11.5 61 4.3 SE 7 11 4 6 1009.8 1008.6 0.0
20/05:00am 18.6 18.3 11.4 63 4.0 SE 4 11 2 6 1009.7 1008.5 0.0
20/04:30am 18.6 16.6 11.4 63 4.0 SE 13 19 7 10 1009.8 1008.6 0.0
20/04:00am 18.9 17.3 11.5 62 4.1 SSE 11 15 6 8 1009.8 1008.6 0.0
20/03:30am 19.2 17.6 11.5 61 4.3 SE 11 15 6 8 1009.8 1008.6 0.0

Other Formats:

Comma delimited format used in spreadsheet applications
http://www.bom.gov.au/fwo/IDW60801/IDW60801.95637.axf

JavaScript Object Notation format (JSON) in row-major order
http://www.bom.gov.au/fwo/IDW60801/IDW60801.95637.json